Time;durP1;ratioP1;P1;durP2;ratioP2;P2;SDS_P1;SDS_P2;PMS_P1;PMS_P2;Temp;Humidity;BMP_temperature;BMP_pressure;BME280_temperature;BME280_humidity;BME280_pressure;Samples;Min_cycle;Max_cycle;Signal;HPM_P1;HPM_P2
2021/09/01 00:00:57;;;;;;;17.25;7.85;;;14.40;99.90;;;;;;5102783;28;19949;-63
2021/09/01 00:03:23;;;;;;;;;;;14.50;99.90;;;;;;5104294;28;20040;-62
2021/09/01 00:05:49;;;;;;;22.38;8.20;;;14.40;99.90;;;;;;5103312;28;20299;-62
2021/09/01 00:08:14;;;;;;;;;;;14.50;99.90;;;;;;5103635;28;20050;-63
2021/09/01 00:10:40;;;;;;;17.10;8.00;;;14.50;99.90;;;;;;5101713;28;19923;-63
2021/09/01 00:13:06;;;;;;;20.80;8.15;;;14.40;99.90;;;;;;5102892;28;20403;-63
2021/09/01 00:15:31;;;;;;;;;;;14.40;99.90;;;;;;5105938;28;20048;-64
2021/09/01 00:17:57;;;;;;;17.73;7.95;;;14.40;99.90;;;;;;5094509;28;19923;-63
2021/09/01 00:20:25;;;;;;;;;;;14.40;99.90;;;;;;5091929;28;20062;-62
2021/09/01 00:22:51;;;;;;;25.10;9.52;;;14.40;99.90;;;;;;5089697;28;20556;-63
2021/09/01 00:25:17;;;;;;;;;;;14.40;99.90;;;;;;5071749;28;20051;-63
2021/09/01 00:27:42;;;;;;;21.45;9.10;;;14.40;99.90;;;;;;5086866;28;19978;-63
2021/09/01 00:30:08;;;;;;;;;;;14.40;99.90;;;;;;5087660;28;20047;-63
2021/09/01 00:32:34;;;;;;;25.60;9.98;;;14.30;99.90;;;;;;5091731;28;20011;-63
2021/09/01 00:34:59;;;;;;;;;;;14.30;99.90;;;;;;5091364;28;20071;-63
2021/09/01 00:37:25;;;;;;;18.33;8.55;;;14.30;99.90;;;;;;5072111;28;19916;-63
2021/09/01 00:39:50;;;;;;;;;;;14.30;99.90;;;;;;5088706;28;20062;-63
2021/09/01 00:42:16;;;;;;;19.00;9.57;;;14.30;99.90;;;;;;5086647;28;19927;-63
2021/09/01 00:44:43;;;;;;;;;;;14.30;99.90;;;;;;5069333;28;20037;-63
2021/09/01 00:47:08;;;;;;;19.67;9.53;;;14.30;99.90;;;;;;5068236;28;19920;-64
2021/09/01 00:49:34;;;;;;;;;;;14.30;99.90;;;;;;5069610;28;20393;-63
2021/09/01 00:52:02;;;;;;;19.48;9.10;;;14.20;99.90;;;;;;5069621;28;20277;-63
2021/09/01 00:54:29;;;;;;;28.40;9.20;;;14.20;99.90;;;;;;5067964;28;20488;-64
2021/09/01 00:57:01;;;;;;;405.70;224.73;;;14.20;99.90;;;;;;5069329;28;21184;-64
2021/09/01 00:59:31;;;;;;;180.45;96.13;;;14.20;99.90;;;;;;5081774;28;20040;-63
2021/09/01 01:01:57;;;;;;;70.03;37.95;;;14.20;99.90;;;;;;5087864;28;20047;-64
2021/09/01 01:04:27;;;;;;;39.17;19.05;;;14.20;99.90;;;;;;5089436;28;20480;-64
2021/09/01 01:07:04;;;;;;;22.30;11.30;;;14.20;99.90;;;;;;5087866;28;20044;-63
2021/09/01 01:09:31;;;;;;;18.05;9.07;;;14.20;99.90;;;;;;5087811;28;20053;-64
2021/09/01 01:12:02;;;;;;;16.88;9.00;;;14.20;99.90;;;;;;5088086;28;20169;-63
2021/09/01 01:14:28;;;;;;;15.57;8.00;;;14.10;99.90;;;;;;5085990;28;20047;-64
2021/09/01 01:16:54;;;;;;;15.75;8.80;;;14.10;99.90;;;;;;5084614;28;20532;-63
2021/09/01 01:19:20;;;;;;;;;;;14.00;99.90;;;;;;5088083;28;20100;-63
2021/09/01 01:21:46;;;;;;;15.70;8.25;;;14.00;99.90;;;;;;5088199;28;19939;-64
2021/09/01 01:24:12;;;;;;;21.55;10.50;;;14.00;99.90;;;;;;5087051;28;20040;-63
2021/09/01 01:26:37;;;;;;;;;;;13.90;99.90;;;;;;5088375;28;20139;-63
2021/09/01 01:29:05;;;;;;;20.20;9.95;;;14.00;99.90;;;;;;5086813;28;19963;-63
2021/09/01 01:31:31;;;;;;;17.85;9.75;;;13.90;99.90;;;;;;5087380;28;20400;-63
2021/09/01 01:33:56;;;;;;;;;;;14.00;99.90;;;;;;5088830;28;20043;-63
2021/09/01 01:36:24;;;;;;;17.60;8.68;;;13.90;99.90;;;;;;5087856;28;19974;-63
2021/09/01 01:38:50;;;;;;;19.48;9.60;;;13.90;99.90;;;;;;5086298;28;20076;-63
2021/09/01 01:41:15;;;;;;;;;;;13.90;99.90;;;;;;5088548;28;20067;-63
2021/09/01 01:43:45;;;;;;;19.33;9.70;;;13.90;99.90;;;;;;5086309;28;19999;-64
2021/09/01 01:46:11;;;;;;;18.38;7.97;;;13.90;99.90;;;;;;5085879;28;20496;-63
2021/09/01 01:48:36;;;;;;;22.05;8.60;;;13.90;99.90;;;;;;5081817;28;20044;-63
2021/09/01 01:51:02;;;;;;;;;;;13.90;99.90;;;;;;5088019;28;20036;-63
2021/09/01 01:53:28;;;;;;;19.55;8.80;;;;;;;;;;5087096;28;19916;-63
2021/09/01 01:55:54;;;;;;;16.02;8.88;;;;;;;;;;5087287;28;20175;-63
2021/09/01 01:58:20;;;;;;;;;;;;;;;;;;5082726;28;20148;-63
2021/09/01 02:00:47;;;;;;;24.88;9.40;;;;;;;;;;5087133;28;19919;-64
2021/09/01 02:03:13;;;;;;;21.20;9.25;;;;;;;;;;5087194;28;20519;-64
2021/09/01 02:05:38;;;;;;;;;;;;;;;;;;5088052;28;20083;-64
2021/09/01 02:08:04;;;;;;;20.38;7.85;;;;;;;;;;5086223;28;19916;-63
2021/09/01 02:10:30;;;;;;;15.98;8.23;;;;;;;;;;5087713;28;20036;-63
2021/09/01 02:12:56;;;;;;;;;;;;;;;;;;5087333;28;20047;-64
2021/09/01 02:15:22;;;;;;;16.35;7.70;;;;;;;;;;5087023;28;19916;-64
2021/09/01 02:17:49;;;;;;;22.88;7.60;;;;;;;;;;5086793;28;20435;-63
2021/09/01 02:20:15;;;;;;;13.98;7.63;;;;;;;;;;5086608;28;20634;-64
2021/09/01 02:22:42;;;;;;;19.52;6.78;;;;;;;;;;5086150;28;20365;-64
2021/09/01 02:25:08;;;;;;;14.13;7.53;;;;;;;;;;5087076;28;20046;-63
2021/09/01 02:27:34;;;;;;;18.60;7.57;;;;;;;;;;5087465;28;20495;-64
2021/09/01 02:30:00;;;;;;;;;;;;;;;;;;5087514;28;20055;-62
2021/09/01 02:32:26;;;;;;;14.52;7.38;;;;;;;;;;5086842;28;19927;-64
2021/09/01 02:34:52;;;;;;;;;;;;;;;;;;5087264;28;20054;-63
2021/09/01 02:37:18;;;;;;;14.75;7.45;;;;;;;;;;5082563;28;19983;-63
2021/09/01 02:39:44;;;;;;;17.48;8.00;;;;;;;;;;5087402;28;20150;-63
2021/09/01 02:42:10;;;;;;;;;;;;;;;;;;5081480;28;20070;-63
2021/09/01 02:44:36;;;;;;;15.43;7.43;;;;;;;;;;5086550;28;20421;-63
2021/09/01 02:47:02;;;;;;;;;;;;;;;;;;5085059;28;20047;-63
2021/09/01 02:49:28;;;;;;;16.70;6.68;;;;;;;;;;5083280;28;19923;-63
2021/09/01 02:51:54;;;;;;;;;;;;;;;;;;5075554;28;20046;-63
2021/09/01 02:54:20;;;;;;;19.90;7.80;;;;;;;;;;5085092;28;20395;-63
2021/09/01 02:56:46;;;;;;;;;;;;;;;;;;5087345;28;20040;-63
2021/09/01 02:59:12;;;;;;;16.52;7.30;;;;;;;;;;5080973;28;20002;-64
2021/09/01 03:01:38;;;;;;;22.17;8.30;;;;;;;;;;5085152;28;20098;-63
2021/09/01 03:04:04;;;;;;;13.20;7.78;;;;;;;;;;5085402;28;20127;-63
2021/09/01 03:06:30;;;;;;;;;;;;;;;;;;5085902;28;20076;-64
2021/09/01 03:08:56;;;;;;;17.80;7.53;;;;;;;;;;5086759;28;20449;-63
2021/09/01 03:11:22;;;;;;;;;;;;;;;;;;5085532;28;20044;-63
2021/09/01 03:13:48;;;;;;;11.85;7.28;;;;;;;;;;5086460;28;19919;-63
2021/09/01 03:16:14;;;;;;;;;;;;;;;;;;5085686;28;20653;-63
2021/09/01 03:18:40;;;;;;;16.30;7.45;;;;;;;;;;5086217;28;20281;-63
2021/09/01 03:21:06;;;;;;;12.90;6.93;;;;;;;;;;5086477;28;20132;-63
2021/09/01 03:23:32;;;;;;;14.50;6.78;;;;;;;;;;5086606;28;20040;-64
2021/09/01 03:25:58;;;;;;;19.25;6.93;;;;;;;;;;5086627;28;20623;-63
2021/09/01 03:28:24;;;;;;;;;;;;;;;;;;5081217;28;20036;-63
2021/09/01 03:30:50;;;;;;;18.35;6.07;;;;;;;;;;5085657;28;20342;-63
2021/09/01 03:33:16;;;;;;;;;;;;;;;;;;5086936;28;20056;-63
2021/09/01 03:35:42;;;;;;;15.90;6.72;;;;;;;;;;5085692;28;19969;-64
2021/09/01 03:38:08;;;;;;;;;;;;;;;;;;5086762;28;20123;-64
2021/09/01 03:40:34;;;;;;;15.73;6.30;;;;;;;;;;5085919;28;19946;-63
2021/09/01 03:43:00;;;;;;;;;;;;;;;;;;5083118;28;20085;-63
2021/09/01 03:45:25;;;;;;;17.15;6.95;;;;;;;;;;5085343;28;19982;-63
2021/09/01 03:47:51;;;;;;;;;;;;;;;;;;5086760;28;20032;-63
2021/09/01 03:50:17;;;;;;;19.42;5.93;;;;;;;;;;5086007;28;19924;-63
2021/09/01 03:52:43;;;;;;;;;;;;;;;;;;5087621;28;20066;-64
2021/09/01 03:55:09;;;;;;;15.18;7.07;;;;;;;;;;5089039;28;19916;-63
2021/09/01 03:57:36;;;;;;;15.13;6.82;;;;;;;;;;5085814;28;20412;-63
2021/09/01 04:00:04;;;;;;;20.30;8.50;;;;;;;;;;5084893;28;20492;-62
2021/09/01 04:02:29;;;;;;;11.75;6.72;;;;;;;;;;5088779;28;20040;-64
2021/09/01 04:04:55;;;;;;;;;;;;;;;;;;5090044;28;20047;-63
2021/09/01 04:07:21;;;;;;;14.00;7.50;;;;;;;;;;5089421;28;19920;-63
2021/09/01 04:09:47;;;;;;;;;;;;;;;;;;5088837;28;20467;-64
2021/09/01 04:12:13;;;;;;;12.25;6.88;;;;;;;;;;5090055;28;19946;-63
2021/09/01 04:14:39;;;;;;;;;;;;;;;;;;5086989;28;20028;-63
2021/09/01 04:17:05;;;;;;;13.65;6.03;;;;;;;;;;5068658;28;19985;-63
2021/09/01 04:19:32;;;;;;;;;;;;;;;;;;5069802;28;20040;-64
2021/09/01 04:21:58;;;;;;;10.63;6.57;;;;;;;;;;5069471;28;19939;-63
2021/09/01 04:24:24;;;;;;;;;;;;;;;;;;5069383;28;20040;-63
2021/09/01 04:26:50;;;;;;;18.08;7.05;;;;;;;;;;5069172;28;20362;-64
2021/09/01 04:29:16;;;;;;;15.20;7.47;;;;;;;;;;5085208;28;20043;-63
2021/09/01 04:31:43;;;;;;;14.27;7.07;;;;;;;;;;5084803;28;20043;-64
2021/09/01 04:34:09;;;;;;;12.98;8.27;;;;;;;;;;5087467;28;20412;-64
2021/09/01 04:36:35;;;;;;;;;;;;;;;;;;5089543;28;20055;-63
2021/09/01 04:39:01;;;;;;;14.40;7.97;;;;;;;;;;5089275;28;19920;-63
2021/09/01 04:41:26;;;;;;;;;;;;;;;;;;5089490;28;20044;-64
2021/09/01 04:43:52;;;;;;;15.63;7.80;;;;;;;;;;5089111;28;19920;-63
2021/09/01 04:46:18;;;;;;;;;;;;;;;;;;5088557;28;20132;-64
2021/09/01 04:48:44;;;;;;;17.15;6.93;;;;;;;;;;5087424;28;20010;-63
2021/09/01 04:51:10;;;;;;;11.23;6.05;;;;;;;;;;5088401;28;20044;-64
2021/09/01 04:53:36;;;;;;;;;;;;;;;;;;5088467;28;20085;-63
2021/09/01 04:56:02;;;;;;;16.27;6.05;;;;;;;;;;5088381;28;19916;-63
2021/09/01 04:58:28;;;;;;;;;;;;;;;;;;5083071;28;20404;-63
2021/09/01 05:00:54;;;;;;;17.27;6.93;;;;;;;;;;5081346;28;20337;-63
2021/09/01 05:03:20;;;;;;;;;;;;;;;;;;5088684;28;20043;-63
2021/09/01 05:05:46;;;;;;;9.20;6.13;;;;;;;;;;5087924;28;19920;-63
2021/09/01 05:08:12;;;;;;;13.32;7.30;;;;;;;;;;5086608;28;20036;-63
2021/09/01 05:10:38;;;;;;;;;;;;;;;;;;5088680;28;20450;-63
2021/09/01 05:13:04;;;;;;;14.25;6.32;;;;;;;;;;5088367;28;20010;-63
2021/09/01 05:15:30;;;;;;;;;;;;;;;;;;5082311;28;20534;-63
2021/09/01 05:17:56;;;;;;;12.43;5.45;;;;;;;;;;5087993;28;20687;-64
2021/09/01 05:20:22;;;;;;;;;;;;;;;;;;5087905;28;20109;-63
2021/09/01 05:22:49;;;;;;;13.50;6.47;;;;;;;;;;5087847;28;19923;-63
2021/09/01 05:25:16;;;;;;;13.98;7.05;;;;;;;;;;5070513;28;20044;-63
2021/09/01 05:27:43;;;;;;;11.73;5.90;;;;;;;;;;5067338;28;20049;-64
2021/09/01 05:30:11;;;;;;;9.98;6.40;;;;;;;;;;5085757;28;20509;-64
2021/09/01 05:32:38;;;;;;;15.68;7.00;;;;;;;;;;5086612;28;20067;-62
2021/09/01 05:35:05;;;;;;;14.98;7.15;;;;;;;;;;5088246;28;20039;-65
2021/09/01 05:37:31;;;;;;;12.27;6.57;;;;;;;;;;5089073;28;20051;-63
2021/09/01 05:39:57;;;;;;;;;;;;;;;;;;5085625;28;20031;-63
2021/09/01 05:42:25;;;;;;;9.82;6.03;;;;;;;;;;5089470;28;19920;-63
2021/09/01 05:44:52;;;;;;;13.40;6.47;;;;;;;;;;5086482;28;20133;-63
2021/09/01 05:47:19;;;;;;;12.70;6.72;;;;;;;;;;5087130;28;20047;-63
2021/09/01 05:49:47;;;;;;;14.60;7.05;;;;;;;;;;5088728;28;20055;-62
2021/09/01 05:52:13;;;;;;;15.98;6.88;;;;;;;;;;5086769;28;20050;-63
2021/09/01 05:54:41;;;;;;;17.05;6.75;;;;;;;;;;5088322;28;20081;-62
2021/09/01 05:57:09;;;;;;;12.52;6.20;;;;;;;;;;5088204;28;20044;-62
2021/09/01 05:59:58;;;;;;;13.30;6.60;;;;;;;;;;5082221;28;20048;-62
2021/09/01 06:02:52;;;;;;;14.90;8.60;;;;;;;;;;5064848;28;20306;-63
2021/09/01 06:05:19;;;;;;;14.30;7.38;;;;;;;;;;5047917;28;20052;-62
2021/09/01 06:07:53;;;;;;;86.10;38.85;;;;;;;;;;5078285;28;20040;-62
2021/09/01 06:10:32;;;;;;;171.60;92.40;;;;;;;;;;5081305;22;20047;-62
2021/09/01 06:13:02;;;;;;;24.30;13.30;;;;;;;;;;5060924;28;20047;-62
2021/09/01 06:15:28;;;;;;;15.40;8.45;;;;;;;;;;5076412;28;20504;-62
2021/09/01 06:17:55;;;;;;;18.98;7.88;;;;;;;;;;5066886;28;20072;-62
2021/09/01 06:20:21;;;;;;;12.90;7.53;;;;;;;;;;5067971;28;20504;-62
2021/09/01 06:22:47;;;;;;;14.88;7.72;;;;;;;;;;5066728;28;20039;-62
2021/09/01 06:25:13;;;;;;;;;;;;;;;;;;5067215;28;20044;-62
2021/09/01 06:27:39;;;;;;;16.02;7.35;;;;;;;;;;5068575;28;19965;-61
2021/09/01 06:30:06;;;;;;;13.02;6.65;;;;;;;;;;5041373;28;20041;-62
2021/09/01 06:32:32;;;;;;;17.42;7.55;;;;;;;;;;5065316;28;20132;-62
2021/09/01 06:34:58;;;;;;;;;;;;;;;;;;5050359;28;20037;-62
2021/09/01 06:37:24;;;;;;;15.15;5.85;;;;;;;;;;5067968;28;19923;-62
2021/09/01 06:39:51;;;;;;;;;;;;;;;;;;5064638;28;20454;-64
2021/09/01 06:42:17;;;;;;;12.73;5.93;;;;;;;;;;5067161;28;19920;-63
2021/09/01 06:44:43;;;;;;;14.75;6.00;;;;;;;;;;5066607;28;20064;-64
2021/09/01 06:47:09;;;;;;;;;;;;;;;;;;5066575;28;20523;-63
2021/09/01 06:49:35;;;;;;;16.65;5.45;;;;;;;;;;5048451;28;19993;-64
2021/09/01 06:52:01;;;;;;;;;;;;;;;;;;5065982;28;20127;-63
2021/09/01 06:54:27;;;;;;;16.65;6.45;;;;;;;;;;5067016;28;20608;-64
2021/09/01 06:56:53;;;;;;;;;;;;;;;;;;5068167;28;20052;-64
2021/09/01 06:59:19;;;;;;;16.52;5.93;;;;;;;;;;5057746;28;19931;-64
2021/09/01 07:01:45;;;;;;;;;;;;;;;;;;5032912;28;20444;-63
2021/09/01 07:04:11;;;;;;;32.78;15.50;;;;;;;;;;5037706;28;20027;-64
2021/09/01 07:06:37;;;;;;;;;;;;;;;;;;5057920;28;20032;-64
2021/09/01 07:09:02;;;;;;;19.10;6.80;;;;;;;;;;5065885;28;19928;-64
2021/09/01 07:11:28;;;;;;;;;;;;;;;;;;5048522;28;20045;-64
2021/09/01 07:13:54;;;;;;;17.25;6.57;;;;;;;;;;5066710;28;19920;-64
2021/09/01 07:16:21;;;;;;;;;;;;;;;;;;5066247;28;20032;-64
2021/09/01 07:18:47;;;;;;;20.88;7.07;;;;;;;;;;5066177;28;19916;-64
2021/09/01 07:21:13;;;;;;;;;;;;;;;;;;5067212;28;20097;-63
2021/09/01 07:23:39;;;;;;;16.25;5.60;;;;;;;;;;5066688;28;19917;-63
2021/09/01 07:26:06;;;;;;;13.57;5.72;;;;;;;;;;5066745;28;20040;-64
2021/09/01 07:28:34;;;;;;;19.85;6.28;;;;;;;;;;5062968;28;20044;-64
2021/09/01 07:31:00;;;;;;;17.45;5.53;;;;;;;;;;5059690;28;20040;-64
2021/09/01 07:33:26;;;;;;;16.67;6.93;;;;;;;;;;5070109;28;20689;-64
2021/09/01 07:35:52;;;;;;;;;;;;;;;;;;5070315;28;20047;-63
2021/09/01 07:38:18;;;;;;;11.32;4.72;;;;;;;;;;5069831;28;19924;-64
2021/09/01 07:40:44;;;;;;;;;;;;;;;;;;5070316;28;20609;-64
2021/09/01 07:43:10;;;;;;;11.35;5.40;;;;;;;;;;5069606;28;19916;-64
2021/09/01 07:45:36;;;;;;;14.85;5.50;;;;;;;;;;5068638;28;20063;-64
2021/09/01 07:48:02;;;;;;;;;;;;;;;;;;5068531;28;20489;-64
2021/09/01 07:50:29;;;;;;;15.63;5.97;;;;;;;;;;5068089;28;20291;-64
2021/09/01 07:52:55;;;;;;;12.93;5.63;;;;;;;;;;5067488;28;20043;-64
2021/09/01 07:55:21;;;;;;;17.92;5.78;;;;;;;;;;5067653;28;20559;-64
2021/09/01 07:57:47;;;;;;;;;;;;;;;;;;5068515;28;20119;-63
2021/09/01 08:00:13;;;;;;;10.38;5.13;;;;;;;;;;5058446;28;20544;-64
2021/09/01 08:02:39;;;;;;;9.88;4.30;;;;;;;;;;5069177;28;20044;-64
2021/09/01 08:05:05;;;;;;;;;;;;;;;;;;5069949;28;20496;-64
2021/09/01 08:07:31;;;;;;;12.82;4.70;;;;;;;;;;5068470;28;19943;-64
2021/09/01 08:09:56;;;;;;;;;;;;;;;;;;5069567;28;20041;-64
2021/09/01 08:12:22;;;;;;;15.15;4.93;;;;;;;;;;5069142;28;19951;-63
2021/09/01 08:14:48;;;;;;;;;;;;;;;;;;5069547;28;20032;-64
2021/09/01 08:17:15;;;;;;;13.27;5.78;;;;;;;;;;5050408;28;19963;-64
2021/09/01 08:19:41;;;;;;;13.52;4.90;;;;;;;;;;5069240;28;20120;-63
2021/09/01 08:22:07;;;;;;;10.40;5.05;;;;;;;;;;5067870;28;20626;-62
2021/09/01 08:24:34;;;;;;;18.52;8.15;;;;;;;;;;5056398;28;20539;-63
2021/09/01 08:27:00;;;;;;;18.65;5.80;;;;;;;;;;5068237;28;20362;-65
2021/09/01 08:29:26;;;;;;;15.40;5.15;;;;;;;;;;5047069;28;20072;-64
2021/09/01 08:31:52;;;;;;;;;;;;;;;;;;5068557;28;20531;-64
2021/09/01 08:34:17;;;;;;;11.35;4.25;;;;;;;;;;5068324;28;20551;-64
2021/09/01 08:36:43;;;;;;;;;;;;;;;;;;5068631;28;20052;-64
2021/09/01 08:39:09;;;;;;;11.35;5.32;;;;;;;;;;5068289;28;19924;-64
2021/09/01 08:41:35;;;;;;;;;;;;;;;;;;5066520;28;20041;-64
2021/09/01 08:44:01;;;;;;;35.38;15.15;;;;;;;;;;5061080;28;19920;-64
2021/09/01 08:46:27;;;;;;;;;;;;;;;;;;5068396;28;20416;-64
2021/09/01 08:48:53;;;;;;;15.43;5.72;;;;;;;;;;5050027;28;19924;-64
2021/09/01 08:51:19;;;;;;;;;;;;;;;;;;5068896;28;20028;-64
2021/09/01 08:53:45;;;;;;;20.25;8.90;;;;;;;;;;5062180;28;19995;-64
2021/09/01 08:56:11;;;;;;;14.52;6.40;;;;;;;;;;5045112;28;20036;-63
2021/09/01 08:58:37;;;;;;;;;;;;;;;;;;5046353;28;20044;-64
2021/09/01 09:01:03;;;;;;;25.85;11.13;;;;;;;;;;5062239;28;19912;-64
2021/09/01 09:03:29;;;;;;;;;;;;;;;;;;5072106;28;20036;-64
2021/09/01 09:06:02;;;;;;;20.70;9.27;;;;;;;;;;5071446;28;19920;-64
2021/09/01 09:08:31;;;;;;;16.17;6.20;;;;;;;;;;5075786;28;20140;-63
2021/09/01 09:10:57;;;;;;;14.90;5.50;;;;;;;;;;5051763;28;20047;-64
2021/09/01 09:13:29;;;;;;;12.35;5.65;;;;;;;;;;5068128;28;20036;-62
2021/09/01 09:16:09;;;;;;;12.95;6.07;;;;;;;;;;5067952;28;20040;-63
2021/09/01 09:18:35;;;;;;;17.45;5.50;;;;;;;;;;5068147;28;20124;-64
2021/09/01 09:21:11;;;;;;;11.98;4.40;;;;;;;;;;5068875;28;20037;-63
2021/09/01 09:23:37;;;;;;;10.73;4.80;;;;;;;;;;5069353;28;20795;-64
2021/09/01 09:26:19;;;;;;;11.70;4.60;;;;;;;;;;5068305;28;20040;-64
2021/09/01 09:28:45;;;;;;;11.98;4.88;;;;;;;;;;5069009;28;20044;-64
2021/09/01 09:31:11;;;;;;;;;;;;;;;;;;5060760;28;20039;-64
2021/09/01 09:33:41;;;;;;;12.70;5.53;;;;;;;;;;5067436;28;19920;-64
2021/09/01 09:36:08;;;;;;;10.77;5.18;;;;;;;;;;5065613;28;20059;-63
2021/09/01 09:38:37;;;;;;;12.35;5.57;;;;;;;;;;5068262;28;20045;-63
2021/09/01 09:41:05;;;;;;;11.30;5.03;;;;;;;;;;5063900;28;20073;-64
2021/09/01 09:43:31;;;;;;;9.10;5.03;;;;;;;;;;5068132;28;20049;-63
2021/09/01 09:46:00;;;;;;;7.55;4.32;;;;;;;;;;5067632;28;20724;-64
2021/09/01 09:48:31;;;;;;;15.77;6.97;;;;;;;;;;5067005;28;20048;-63
2021/09/01 09:50:57;;;;;;;13.20;6.50;;;;;;;;;;5067176;28;20039;-64
2021/09/01 09:53:34;;;;;;;12.85;6.95;;;;;;;;;;5067637;28;20055;-63
2021/09/01 09:56:28;;;;;;;24.23;8.32;;;;;;;;;;5066889;28;20036;-64
2021/09/01 09:58:55;;;;;;;19.95;7.63;;;;;;;;;;5056820;28;20500;-64
2021/09/01 10:01:25;;;;;;;10.07;5.65;;;;;;;;;;5054346;28;20037;-63
2021/09/01 10:03:52;;;;;;;12.55;6.22;;;;;;;;;;5029976;28;20037;-65
2021/09/01 10:06:19;;;;;;;11.55;4.80;;;;;;;;;;5047811;28;20041;-64
2021/09/01 10:08:46;;;;;;;13.38;5.32;;;;;;;;;;5047336;28;20124;-63
2021/09/01 10:11:13;;;;;;;9.43;5.07;;;;;;;;;;5046311;28;20092;-63
2021/09/01 10:13:40;;;;;;;15.18;5.35;;;;;;;;;;5029600;28;20041;-64
2021/09/01 10:16:22;;;;;;;12.68;5.03;;;;;;;;;;5060746;28;20923;-64
2021/09/01 10:18:49;;;;;;;10.02;5.38;;;;;;;;;;5065137;28;20496;-64
2021/09/01 10:21:17;;;;;;;9.68;4.90;;;;;;;;;;5066438;28;20039;-63
2021/09/01 10:23:45;;;;;;;14.38;5.55;;;;;;;;;;5066936;28;20041;-63
2021/09/01 10:26:23;;;;;;;10.20;5.95;;;;;;;;;;5066671;28;20044;-62
2021/09/01 10:28:49;;;;;;;10.02;5.28;;;;;;;;;;5062831;28;20052;-61
2021/09/01 10:31:22;;;;;;;12.18;4.75;;;;;;;;;;5067285;28;20041;-62
2021/09/01 10:33:51;;;;;;;13.35;5.20;;;;;;;;;;5068807;28;20531;-63
2021/09/01 10:36:23;;;;;;;10.63;5.05;;;;;;;;;;5062188;28;20044;-63
2021/09/01 10:38:53;;;;;;;13.02;4.78;;;;;;;;;;5063154;28;20177;-63
2021/09/01 10:41:32;;;;;;;11.10;5.43;;;;;;;;;;5039503;28;20044;-63
2021/09/01 10:44:08;;;;;;;12.52;5.15;;;;;;;;;;5058576;28;20033;-63
2021/09/01 10:46:49;;;;;;;12.50;5.47;;;;;;;;;;5067643;28;20044;-63
2021/09/01 10:49:15;;;;;;;9.70;4.88;;;;;;;;;;5073957;28;20028;-64
2021/09/01 10:51:41;;;;;;;;;;;;;;;;;;5084269;28;20096;-64
2021/09/01 10:54:25;;;;;;;8.05;4.00;;;;;;;;;;5066557;28;19924;-64
2021/09/01 10:56:51;;;;;;;11.38;4.32;;;;;;;;;;5082385;28;20036;-65
2021/09/01 10:59:24;;;;;;;11.70;5.53;;;;;;;;;;5064515;28;20064;-64
2021/09/01 11:02:09;;;;;;;9.95;4.95;;;;;;;;;;5025920;28;20041;-64
2021/09/01 11:04:36;;;;;;;12.65;5.60;;;;;;;;;;5078490;28;20050;-63
2021/09/01 11:07:07;;;;;;;10.60;5.47;;;;;;;;;;5087919;28;20123;-64
2021/09/01 11:09:33;;;;;;;10.27;5.40;;;;;;;;;;5087171;28;20036;-64
2021/09/01 11:11:59;;;;;;;9.18;5.18;;;;;;;;;;5069123;28;20040;-64
2021/09/01 11:14:30;;;;;;;9.45;4.88;;;;;;;;;;5065625;28;20041;-64
2021/09/01 11:16:57;;;;;;;9.98;4.90;;;;;;;;;;5065318;28;20136;-63
2021/09/01 11:19:23;;;;;;;11.10;5.28;;;;;;;;;;5065381;28;20174;-64
2021/09/01 11:21:49;;;;;;;7.53;4.47;;;;;;;;;;5065519;28;20424;-64
2021/09/01 11:24:15;;;;;;;;;;;;;;;;;;5065662;28;20048;-64
2021/09/01 11:26:41;;;;;;;15.23;6.68;;;;;;;;;;5065905;28;19969;-64
2021/09/01 11:29:08;;;;;;;42.55;22.33;;;;;;;;;;5065397;28;20067;-65
2021/09/01 11:31:44;;;;;;;9.80;5.30;;;;;;;;;;5064477;28;20489;-64
2021/09/01 11:34:12;;;;;;;8.88;4.93;;;;;;;;;;5066084;28;20178;-63
2021/09/01 11:36:38;;;;;;;52.70;23.00;;;;;;;;;;5071931;28;20055;-64
2021/09/01 11:39:04;;;;;;;21.17;9.80;;;;;;;;;;5085190;28;20043;-65
2021/09/01 11:41:30;;;;;;;10.23;4.72;;;;;;;;;;5085767;28;20028;-65
2021/09/01 11:43:56;;;;;;;;;;;;;;;;;;5085981;28;20089;-65
2021/09/01 11:46:22;;;;;;;7.10;4.07;;;;;;;;;;5085242;28;20363;-64
2021/09/01 11:48:48;;;;;;;;;;;;;;;;;;5086532;28;20487;-64
2021/09/01 11:51:19;;;;;;;12.23;6.28;;;;;;;;;;5069348;28;19939;-63
2021/09/01 11:53:45;;;;;;;9.68;4.57;;;;;;;;;;5065557;28;20690;-64
2021/09/01 11:56:12;;;;;;;6.28;3.65;;;;;;;;;;5047667;28;20044;-64
2021/09/01 11:58:38;;;;;;;8.27;4.35;;;;;;;;;;5059285;28;20071;-64
2021/09/01 12:01:04;;;;;;;;;;;;;;;;;;5053701;28;20037;-64
2021/09/01 12:03:31;;;;;;;8.25;3.67;;;;;;;;;;5045676;28;20511;-64
2021/09/01 12:06:10;;;;;;;7.90;3.90;;;;;;;;;;5045800;28;20068;-63
2021/09/01 12:08:43;;;;;;;5.60;3.35;;;;;;;;;;5045501;28;20041;-64
2021/09/01 12:11:09;;;;;;;7.63;3.83;;;;;;;;;;5046080;28;20504;-64
2021/09/01 12:13:58;;;;;;;10.68;4.35;;;;;;;;;;5047447;28;20394;-65
2021/09/01 12:16:26;;;;;;;7.90;4.38;;;;;;;;;;5067145;28;20041;-64
2021/09/01 12:18:56;;;;;;;8.52;3.40;;;;;;;;;;5071090;28;20037;-64
2021/09/01 12:21:24;;;;;;;7.78;3.90;;;;;;;;;;5071284;28;20044;-65
2021/09/01 12:24:09;;;;;;;8.18;3.90;;;;;;;;;;5071204;28;20124;-65
2021/09/01 12:27:06;;;;;;;5.68;3.30;;;;;;;;;;5071642;28;20447;-66
2021/09/01 12:29:39;;;;;;;7.93;3.08;;;;;;;;;;5055016;28;20052;-64
2021/09/01 12:32:06;;;;;;;6.03;3.03;;;;;;;;;;5056798;28;20035;-64
2021/09/01 12:34:37;;;;;;;18.55;5.47;;;;;;;;;;5058804;28;20051;-65
2021/09/01 12:37:09;;;;;;;8.63;3.65;;;;;;;;;;5058633;28;20068;-64
2021/09/01 12:39:46;;;;;;;11.93;4.32;;;;;;;;;;5058238;28;20045;-64
2021/09/01 12:42:19;;;;;;;10.50;4.15;;;;;;;;;;5058287;28;20056;-64
2021/09/01 12:44:46;;;;;;;27.17;7.35;;;;;;;;;;5058583;28;20496;-64
2021/09/01 12:47:12;;;;;;;41.92;10.25;;;;;;;;;;5037540;28;20048;-64
2021/09/01 12:49:38;;;;;;;;;;;;;;;;;;5060974;28;20052;-64
2021/09/01 12:52:04;;;;;;;9.60;3.40;;;;;;;;;;5062098;28;19916;-64
2021/09/01 12:54:30;;;;;;;9.73;3.53;;;;;;;;;;5066967;28;20123;-65
2021/09/01 12:56:56;;;;;;;;;;;;;;;;;;5066599;28;20170;-65
2021/09/01 12:59:22;;;;;;;10.25;3.40;;;;;;;;;;5068012;28;20463;-64
2021/09/01 13:01:48;;;;;;;25.20;6.38;;;;;;;;;;5050994;28;20093;-64
2021/09/01 13:04:14;;;;;;;9.85;3.70;;;;;;;;;;5048638;28;20037;-65
2021/09/01 13:06:40;;;;;;;9.38;3.10;;;;;;;;;;5047719;28;20493;-65
2021/09/01 13:09:06;;;;;;;8.88;3.53;;;;;;;;;;5048286;28;20094;-65
2021/09/01 13:11:32;;;;;;;;;;;;;;;;;;5048700;28;20036;-64
2021/09/01 13:13:58;;;;;;;11.57;5.05;;;;;;;;;;5047877;28;19921;-65
2021/09/01 13:16:24;;;;;;;;;;;;;;;;;;5066310;28;20037;-64
2021/09/01 13:18:50;;;;;;;75.78;15.63;;;;;;;;;;5067262;28;19927;-64
2021/09/01 13:21:16;;;;;;;33.88;8.77;;;;;;;;;;5068427;28;20040;-64
2021/09/01 13:23:42;;;;;;;;;;;;;;;;;;5068219;28;20047;-65
2021/09/01 13:26:08;;;;;;;15.45;5.20;;;;;;;;;;5068181;28;19916;-65
2021/09/01 13:28:34;;;;;;;11.77;4.55;;;;;;;;;;5049337;28;20064;-65
2021/09/01 13:31:00;;;;;;;10.30;4.20;;;;;;;;;;5031477;28;20090;-65
2021/09/01 13:33:26;;;;;;;7.47;3.65;;;;;;;;;;5047450;28;20140;-65
2021/09/01 13:35:51;;;;;;;;;;;;;;;;;;5047933;28;20620;-65
2021/09/01 13:38:17;;;;;;;8.52;3.45;;;;;;;;;;5047266;28;19916;-65
2021/09/01 13:40:43;;;;;;;15.40;4.80;;;;;;;;;;5047485;28;20083;-65
2021/09/01 13:43:09;;;;;;;7.10;3.65;;;;;;;;;;5046784;28;20152;-65
2021/09/01 13:45:41;;;;;;;;;;;;;;;;;;5047501;28;20037;-64
2021/09/01 13:48:07;;;;;;;9.80;3.53;;;;;;;;;;5047042;28;20015;-66
2021/09/01 13:50:33;;;;;;;;;;;;;;;;;;5047722;28;20136;-66
2021/09/01 13:53:00;;;;;;;17.73;5.03;;;;;;;;;;5046828;28;19917;-65
2021/09/01 13:55:26;;;;;;;10.63;5.63;;;;;;;;;;5049478;28;20063;-65
2021/09/01 13:57:56;;;;;;;;;;;;;;;;;;5067288;28;20036;-65
2021/09/01 14:00:22;;;;;;;10.40;4.80;;;;;;;;;;5054289;28;19939;-64
2021/09/01 14:02:50;;;;;;;;;;;;;;;;;;5047578;28;20576;-65
2021/09/01 14:05:16;;;;;;;12.82;5.32;;;;;;;;;;5047313;28;19952;-64
2021/09/01 14:07:42;;;;;;;11.85;4.97;;;;;;;;;;5026626;28;20392;-65
2021/09/01 14:10:08;;;;;;;;;;;;;;;;;;5046624;28;20123;-65
2021/09/01 14:12:34;;;;;;;11.15;4.75;;;;;;;;;;5046714;28;19986;-66
2021/09/01 14:15:00;;;;;;;;;;;;;;;;;;5053556;28;20029;-65
2021/09/01 14:17:26;;;;;;;11.40;4.25;;;;;;;;;;5065445;28;19927;-65
2021/09/01 14:19:52;;;;;;;7.93;3.75;;;;;;;;;;5067468;28;20033;-65
2021/09/01 14:22:18;;;;;;;;;;;;;;;;;;5067085;28;20041;-64
2021/09/01 14:24:44;;;;;;;12.43;4.38;;;;;;;;;;5066905;28;19924;-64
2021/09/01 14:27:10;;;;;;;;;;;;;;;;;;5068175;28;20033;-64
2021/09/01 14:29:42;;;;;;;10.68;3.85;;;;;;;;;;5060677;28;19920;-65
2021/09/01 14:32:08;;;;;;;17.02;4.38;;;;;;;;;;5046847;28;20045;-64
2021/09/01 14:34:34;;;;;;;;;;;;;;;;;;5047629;28;20056;-64
2021/09/01 14:37:00;;;;;;;11.88;4.45;;;;;;;;;;5027627;28;19928;-66
2021/09/01 14:39:26;;;;;;;;;;;;;;;;;;5047364;28;20128;-65
2021/09/01 14:41:52;;;;;;;6.85;3.55;;;;;;;;;;5046403;28;19916;-65
2021/09/01 14:44:18;;;;;;;9.32;4.15;;;;;;;;;;5046506;28;20446;-64
2021/09/01 14:46:44;;;;;;;12.05;4.20;;;;;;;;;;5045664;28;20549;-65